Terminal Aerodrome Forecast
Issued by NWS Cleveland, OH

Home | Current Version | Previous Version | Graphics & Text | Print | Product List | Glossary On
Versions: 1 2 3 4 5 6 7 8 9 10 11 12 13 14
528
FTUS41 KCLE 260530
TAFCAK
TAF
KCAK 260530Z 2606/2706 16008KT P6SM SCT250
     FM261000 19010KT P6SM OVC080
     FM261600 25012KT 5SM -SHRA OVC025
     FM262100 28014G22KT P6SM SCT025 OVC060=

USA.gov is the U.S. government's official web portal to all federal, state and local government web resources and services.